sensor_id;sensor_type;location;lat;lon;timestamp;P1;durP1;ratioP1;P2;durP2;ratioP2
49824;SDS011;35714;55.708;37.478;2023-04-03T00:00:50;13.23;;;7.85;;
49824;SDS011;35714;55.708;37.478;2023-04-03T00:03:16;11.07;;;6.82;;
49824;SDS011;35714;55.708;37.478;2023-04-03T00:05:43;16.80;;;9.68;;
49824;SDS011;35714;55.708;37.478;2023-04-03T00:08:09;15.18;;;7.90;;
49824;SDS011;35714;55.708;37.478;2023-04-03T00:10:35;10.70;;;5.68;;
49824;SDS011;35714;55.708;37.478;2023-04-03T00:13:05;12.63;;;7.32;;
49824;SDS011;35714;55.708;37.478;2023-04-03T00:15:31;12.10;;;5.60;;
49824;SDS011;35714;55.708;37.478;2023-04-03T00:17:57;14.60;;;8.20;;
49824;SDS011;35714;55.708;37.478;2023-04-03T00:20:23;15.95;;;9.63;;
49824;SDS011;35714;55.708;37.478;2023-04-03T00:22:49;14.57;;;7.55;;
49824;SDS011;35714;55.708;37.478;2023-04-03T00:25:14;10.10;;;6.22;;
49824;SDS011;35714;55.708;37.478;2023-04-03T00:27:40;12.15;;;6.93;;
49824;SDS011;35714;55.708;37.478;2023-04-03T00:30:07;9.35;;;5.10;;
49824;SDS011;35714;55.708;37.478;2023-04-03T00:32:35;13.20;;;5.32;;
49824;SDS011;35714;55.708;37.478;2023-04-03T00:35:01;10.50;;;5.18;;
49824;SDS011;35714;55.708;37.478;2023-04-03T00:37:28;11.07;;;5.30;;
49824;SDS011;35714;55.708;37.478;2023-04-03T00:39:53;10.48;;;5.20;;
49824;SDS011;35714;55.708;37.478;2023-04-03T00:42:19;10.68;;;4.80;;
49824;SDS011;35714;55.708;37.478;2023-04-03T00:47:12;9.90;;;5.03;;
49824;SDS011;35714;55.708;37.478;2023-04-03T00:49:41;7.88;;;4.35;;
49824;SDS011;35714;55.708;37.478;2023-04-03T00:52:09;10.65;;;4.63;;
49824;SDS011;35714;55.708;37.478;2023-04-03T00:54:38;10.23;;;5.28;;
49824;SDS011;35714;55.708;37.478;2023-04-03T00:57:06;6.68;;;4.07;;
49824;SDS011;35714;55.708;37.478;2023-04-03T00:59:33;10.68;;;4.85;;
49824;SDS011;35714;55.708;37.478;2023-04-03T01:02:04;11.48;;;4.95;;
49824;SDS011;35714;55.708;37.478;2023-04-03T01:04:37;11.73;;;4.93;;
49824;SDS011;35714;55.708;37.478;2023-04-03T01:07:09;12.88;;;5.47;;
49824;SDS011;35714;55.708;37.478;2023-04-03T01:09:37;10.40;;;4.85;;
49824;SDS011;35714;55.708;37.478;2023-04-03T01:12:14;12.07;;;4.82;;
49824;SDS011;35714;55.708;37.478;2023-04-03T01:15:15;9.68;;;4.88;;
49824;SDS011;35714;55.708;37.478;2023-04-03T01:18:04;11.30;;;5.03;;
49824;SDS011;35714;55.708;37.478;2023-04-03T01:25:37;8.90;;;5.03;;
49824;SDS011;35714;55.708;37.478;2023-04-03T01:28:09;8.10;;;5.03;;
49824;SDS011;35714;55.708;37.478;2023-04-03T01:30:43;10.70;;;5.55;;
49824;SDS011;35714;55.708;37.478;2023-04-03T01:33:13;10.30;;;4.60;;
49824;SDS011;35714;55.708;37.478;2023-04-03T01:35:39;8.43;;;5.45;;
49824;SDS011;35714;55.708;37.478;2023-04-03T01:38:05;8.48;;;5.07;;
49824;SDS011;35714;55.708;37.478;2023-04-03T01:40:32;7.78;;;4.60;;
49824;SDS011;35714;55.708;37.478;2023-04-03T01:42:57;11.48;;;4.97;;
49824;SDS011;35714;55.708;37.478;2023-04-03T01:45:23;9.07;;;5.13;;
49824;SDS011;35714;55.708;37.478;2023-04-03T01:47:48;11.05;;;5.25;;
49824;SDS011;35714;55.708;37.478;2023-04-03T01:50:15;9.13;;;5.63;;
49824;SDS011;35714;55.708;37.478;2023-04-03T01:52:40;10.40;;;4.93;;
49824;SDS011;35714;55.708;37.478;2023-04-03T01:55:06;10.57;;;4.95;;
49824;SDS011;35714;55.708;37.478;2023-04-03T01:57:33;8.88;;;4.85;;
49824;SDS011;35714;55.708;37.478;2023-04-03T01:59:58;12.13;;;5.47;;
49824;SDS011;35714;55.708;37.478;2023-04-03T02:02:24;10.55;;;5.45;;
49824;SDS011;35714;55.708;37.478;2023-04-03T02:04:51;9.02;;;4.80;;
49824;SDS011;35714;55.708;37.478;2023-04-03T02:07:17;9.32;;;5.35;;
49824;SDS011;35714;55.708;37.478;2023-04-03T02:09:42;8.85;;;5.05;;
49824;SDS011;35714;55.708;37.478;2023-04-03T02:12:08;8.70;;;5.10;;
49824;SDS011;35714;55.708;37.478;2023-04-03T02:14:34;9.18;;;4.72;;
49824;SDS011;35714;55.708;37.478;2023-04-03T02:17:00;8.50;;;4.90;;
49824;SDS011;35714;55.708;37.478;2023-04-03T02:19:30;13.05;;;5.32;;
49824;SDS011;35714;55.708;37.478;2023-04-03T02:21:56;10.18;;;4.40;;
49824;SDS011;35714;55.708;37.478;2023-04-03T02:24:21;10.23;;;5.30;;
49824;SDS011;35714;55.708;37.478;2023-04-03T02:26:47;9.73;;;4.85;;
49824;SDS011;35714;55.708;37.478;2023-04-03T02:29:13;9.50;;;5.15;;
49824;SDS011;35714;55.708;37.478;2023-04-03T02:31:38;10.73;;;5.50;;
49824;SDS011;35714;55.708;37.478;2023-04-03T02:34:04;12.45;;;5.85;;
49824;SDS011;35714;55.708;37.478;2023-04-03T02:36:31;9.70;;;5.30;;
49824;SDS011;35714;55.708;37.478;2023-04-03T02:38:58;12.30;;;5.80;;
49824;SDS011;35714;55.708;37.478;2023-04-03T02:41:24;10.40;;;5.15;;
49824;SDS011;35714;55.708;37.478;2023-04-03T02:43:54;8.02;;;4.65;;
49824;SDS011;35714;55.708;37.478;2023-04-03T02:46:19;11.35;;;5.93;;
49824;SDS011;35714;55.708;37.478;2023-04-03T02:48:45;9.70;;;5.03;;
49824;SDS011;35714;55.708;37.478;2023-04-03T02:51:10;9.95;;;5.50;;
49824;SDS011;35714;55.708;37.478;2023-04-03T02:53:36;9.95;;;5.80;;
49824;SDS011;35714;55.708;37.478;2023-04-03T02:56:09;13.00;;;5.53;;
49824;SDS011;35714;55.708;37.478;2023-04-03T02:58:34;12.48;;;6.28;;
49824;SDS011;35714;55.708;37.478;2023-04-03T03:01:01;11.23;;;5.43;;
49824;SDS011;35714;55.708;37.478;2023-04-03T03:03:27;9.20;;;4.95;;
49824;SDS011;35714;55.708;37.478;2023-04-03T03:06:06;11.13;;;5.88;;
49824;SDS011;35714;55.708;37.478;2023-04-03T03:08:34;12.85;;;5.57;;
49824;SDS011;35714;55.708;37.478;2023-04-03T03:11:00;10.10;;;5.50;;
49824;SDS011;35714;55.708;37.478;2023-04-03T03:13:27;12.57;;;5.78;;
49824;SDS011;35714;55.708;37.478;2023-04-03T03:15:52;11.52;;;6.25;;
49824;SDS011;35714;55.708;37.478;2023-04-03T03:18:18;8.98;;;5.32;;
49824;SDS011;35714;55.708;37.478;2023-04-03T03:20:43;10.57;;;5.75;;
49824;SDS011;35714;55.708;37.478;2023-04-03T03:23:09;9.48;;;5.38;;
49824;SDS011;35714;55.708;37.478;2023-04-03T03:25:41;10.77;;;5.60;;
49824;SDS011;35714;55.708;37.478;2023-04-03T03:28:07;10.85;;;5.78;;
49824;SDS011;35714;55.708;37.478;2023-04-03T03:30:33;10.48;;;5.35;;
49824;SDS011;35714;55.708;37.478;2023-04-03T03:32:59;12.80;;;5.45;;
49824;SDS011;35714;55.708;37.478;2023-04-03T03:35:25;8.43;;;5.05;;
49824;SDS011;35714;55.708;37.478;2023-04-03T03:37:50;8.65;;;4.95;;
49824;SDS011;35714;55.708;37.478;2023-04-03T03:40:16;8.82;;;5.22;;
49824;SDS011;35714;55.708;37.478;2023-04-03T03:42:42;11.52;;;5.43;;
49824;SDS011;35714;55.708;37.478;2023-04-03T03:45:08;12.13;;;5.47;;
49824;SDS011;35714;55.708;37.478;2023-04-03T03:47:34;8.98;;;4.80;;
49824;SDS011;35714;55.708;37.478;2023-04-03T03:50:01;8.70;;;5.07;;
49824;SDS011;35714;55.708;37.478;2023-04-03T03:52:28;12.00;;;5.85;;
49824;SDS011;35714;55.708;37.478;2023-04-03T03:54:55;9.70;;;5.45;;
49824;SDS011;35714;55.708;37.478;2023-04-03T03:57:21;12.35;;;6.05;;
49824;SDS011;35714;55.708;37.478;2023-04-03T03:59:48;9.02;;;5.03;;
49824;SDS011;35714;55.708;37.478;2023-04-03T04:02:16;10.60;;;5.85;;
49824;SDS011;35714;55.708;37.478;2023-04-03T04:04:42;10.63;;;6.53;;
49824;SDS011;35714;55.708;37.478;2023-04-03T04:07:09;11.85;;;6.85;;
49824;SDS011;35714;55.708;37.478;2023-04-03T04:09:35;11.60;;;6.20;;
49824;SDS011;35714;55.708;37.478;2023-04-03T04:12:00;10.93;;;5.57;;
49824;SDS011;35714;55.708;37.478;2023-04-03T04:14:27;10.05;;;5.97;;
49824;SDS011;35714;55.708;37.478;2023-04-03T04:16:53;12.98;;;6.47;;
49824;SDS011;35714;55.708;37.478;2023-04-03T04:19:23;11.57;;;6.30;;
49824;SDS011;35714;55.708;37.478;2023-04-03T04:21:49;13.77;;;6.30;;
49824;SDS011;35714;55.708;37.478;2023-04-03T04:24:16;14.50;;;6.50;;
49824;SDS011;35714;55.708;37.478;2023-04-03T04:26:41;12.05;;;7.10;;
49824;SDS011;35714;55.708;37.478;2023-04-03T04:29:10;11.68;;;7.07;;
49824;SDS011;35714;55.708;37.478;2023-04-03T04:31:36;9.43;;;6.25;;
49824;SDS011;35714;55.708;37.478;2023-04-03T04:34:02;12.57;;;6.60;;
49824;SDS011;35714;55.708;37.478;2023-04-03T04:36:28;11.68;;;6.40;;
49824;SDS011;35714;55.708;37.478;2023-04-03T04:38:53;13.77;;;6.72;;
49824;SDS011;35714;55.708;37.478;2023-04-03T04:41:22;12.73;;;6.68;;
49824;SDS011;35714;55.708;37.478;2023-04-03T04:43:49;13.20;;;7.22;;
49824;SDS011;35714;55.708;37.478;2023-04-03T04:46:17;14.15;;;6.32;;
49824;SDS011;35714;55.708;37.478;2023-04-03T04:48:48;9.98;;;5.90;;
49824;SDS011;35714;55.708;37.478;2023-04-03T04:51:15;9.70;;;6.43;;
49824;SDS011;35714;55.708;37.478;2023-04-03T04:53:41;10.77;;;6.75;;
49824;SDS011;35714;55.708;37.478;2023-04-03T04:56:10;13.52;;;7.43;;
49824;SDS011;35714;55.708;37.478;2023-04-03T04:58:38;13.43;;;7.13;;
49824;SDS011;35714;55.708;37.478;2023-04-03T05:01:05;12.95;;;7.45;;
49824;SDS011;35714;55.708;37.478;2023-04-03T05:03:35;15.63;;;7.18;;
49824;SDS011;35714;55.708;37.478;2023-04-03T05:06:01;14.18;;;7.72;;
49824;SDS011;35714;55.708;37.478;2023-04-03T05:08:30;10.82;;;7.55;;
49824;SDS011;35714;55.708;37.478;2023-04-03T05:10:56;12.68;;;7.40;;
49824;SDS011;35714;55.708;37.478;2023-04-03T05:13:25;11.90;;;6.85;;
49824;SDS011;35714;55.708;37.478;2023-04-03T05:15:50;11.88;;;6.63;;
49824;SDS011;35714;55.708;37.478;2023-04-03T05:18:16;16.23;;;8.45;;
49824;SDS011;35714;55.708;37.478;2023-04-03T05:20:43;11.57;;;7.07;;
49824;SDS011;35714;55.708;37.478;2023-04-03T05:23:10;14.98;;;7.85;;
49824;SDS011;35714;55.708;37.478;2023-04-03T05:25:39;11.50;;;7.05;;
49824;SDS011;35714;55.708;37.478;2023-04-03T05:28:06;13.40;;;7.18;;
49824;SDS011;35714;55.708;37.478;2023-04-03T05:30:32;11.15;;;6.97;;
49824;SDS011;35714;55.708;37.478;2023-04-03T05:32:58;12.63;;;7.63;;
49824;SDS011;35714;55.708;37.478;2023-04-03T05:35:36;15.93;;;8.52;;
49824;SDS011;35714;55.708;37.478;2023-04-03T05:38:09;16.10;;;6.90;;
49824;SDS011;35714;55.708;37.478;2023-04-03T05:40:35;11.93;;;6.65;;
49824;SDS011;35714;55.708;37.478;2023-04-03T05:43:01;11.55;;;7.57;;
49824;SDS011;35714;55.708;37.478;2023-04-03T05:45:30;11.70;;;7.40;;
49824;SDS011;35714;55.708;37.478;2023-04-03T05:47:57;11.80;;;7.40;;
49824;SDS011;35714;55.708;37.478;2023-04-03T05:50:23;12.70;;;7.25;;
49824;SDS011;35714;55.708;37.478;2023-04-03T05:52:52;14.18;;;7.68;;
49824;SDS011;35714;55.708;37.478;2023-04-03T05:55:20;12.68;;;7.50;;
49824;SDS011;35714;55.708;37.478;2023-04-03T05:57:46;12.98;;;7.47;;
49824;SDS011;35714;55.708;37.478;2023-04-03T06:00:13;14.82;;;8.05;;
49824;SDS011;35714;55.708;37.478;2023-04-03T06:02:42;14.63;;;8.35;;
49824;SDS011;35714;55.708;37.478;2023-04-03T06:05:13;14.82;;;7.80;;
49824;SDS011;35714;55.708;37.478;2023-04-03T06:07:40;14.63;;;8.20;;
49824;SDS011;35714;55.708;37.478;2023-04-03T06:10:06;16.42;;;8.98;;
49824;SDS011;35714;55.708;37.478;2023-04-03T06:12:33;12.57;;;7.70;;
49824;SDS011;35714;55.708;37.478;2023-04-03T06:14:58;16.80;;;7.68;;
49824;SDS011;35714;55.708;37.478;2023-04-03T06:17:24;13.52;;;7.80;;
49824;SDS011;35714;55.708;37.478;2023-04-03T06:19:50;13.88;;;6.97;;
49824;SDS011;35714;55.708;37.478;2023-04-03T06:22:16;13.40;;;7.95;;
49824;SDS011;35714;55.708;37.478;2023-04-03T06:24:42;18.83;;;8.80;;
49824;SDS011;35714;55.708;37.478;2023-04-03T06:27:09;13.90;;;7.85;;
49824;SDS011;35714;55.708;37.478;2023-04-03T06:29:36;15.32;;;9.57;;
49824;SDS011;35714;55.708;37.478;2023-04-03T06:32:02;13.05;;;8.32;;
49824;SDS011;35714;55.708;37.478;2023-04-03T06:34:27;17.52;;;10.10;;
49824;SDS011;35714;55.708;37.478;2023-04-03T06:36:53;15.77;;;8.65;;
49824;SDS011;35714;55.708;37.478;2023-04-03T06:39:20;18.55;;;8.88;;
49824;SDS011;35714;55.708;37.478;2023-04-03T06:41:47;15.35;;;7.22;;
49824;SDS011;35714;55.708;37.478;2023-04-03T06:44:15;13.40;;;8.00;;
49824;SDS011;35714;55.708;37.478;2023-04-03T06:46:41;15.32;;;8.45;;
49824;SDS011;35714;55.708;37.478;2023-04-03T06:49:07;16.17;;;7.70;;
49824;SDS011;35714;55.708;37.478;2023-04-03T06:51:34;12.40;;;7.60;;
49824;SDS011;35714;55.708;37.478;2023-04-03T06:54:01;13.13;;;8.98;;
49824;SDS011;35714;55.708;37.478;2023-04-03T06:56:28;15.80;;;8.30;;
49824;SDS011;35714;55.708;37.478;2023-04-03T06:58:55;13.10;;;7.50;;
49824;SDS011;35714;55.708;37.478;2023-04-03T07:01:23;14.82;;;7.85;;
49824;SDS011;35714;55.708;37.478;2023-04-03T07:03:51;16.23;;;7.93;;
49824;SDS011;35714;55.708;37.478;2023-04-03T07:06:17;16.23;;;7.95;;
49824;SDS011;35714;55.708;37.478;2023-04-03T07:08:44;15.20;;;7.20;;
49824;SDS011;35714;55.708;37.478;2023-04-03T07:11:11;11.75;;;7.20;;
49824;SDS011;35714;55.708;37.478;2023-04-03T07:13:38;12.30;;;7.20;;
49824;SDS011;35714;55.708;37.478;2023-04-03T07:16:04;15.98;;;9.02;;
49824;SDS011;35714;55.708;37.478;2023-04-03T07:18:30;19.52;;;11.07;;
49824;SDS011;35714;55.708;37.478;2023-04-03T07:20:57;14.80;;;9.15;;
49824;SDS011;35714;55.708;37.478;2023-04-03T07:23:22;16.83;;;8.23;;
49824;SDS011;35714;55.708;37.478;2023-04-03T07:25:49;17.63;;;8.00;;
49824;SDS011;35714;55.708;37.478;2023-04-03T07:28:16;19.77;;;7.88;;
49824;SDS011;35714;55.708;37.478;2023-04-03T07:30:49;18.23;;;7.32;;
49824;SDS011;35714;55.708;37.478;2023-04-03T07:33:17;21.60;;;7.70;;
49824;SDS011;35714;55.708;37.478;2023-04-03T07:35:45;16.10;;;8.18;;
49824;SDS011;35714;55.708;37.478;2023-04-03T07:38:11;17.85;;;7.93;;
49824;SDS011;35714;55.708;37.478;2023-04-03T07:40:37;15.80;;;7.55;;
49824;SDS011;35714;55.708;37.478;2023-04-03T07:43:03;14.00;;;7.93;;
49824;SDS011;35714;55.708;37.478;2023-04-03T07:45:30;15.27;;;8.20;;
49824;SDS011;35714;55.708;37.478;2023-04-03T07:47:56;14.57;;;8.02;;
49824;SDS011;35714;55.708;37.478;2023-04-03T07:50:22;14.20;;;7.80;;
49824;SDS011;35714;55.708;37.478;2023-04-03T07:52:48;17.05;;;8.30;;
49824;SDS011;35714;55.708;37.478;2023-04-03T07:55:16;14.57;;;7.00;;
49824;SDS011;35714;55.708;37.478;2023-04-03T07:57:41;15.68;;;6.82;;
49824;SDS011;35714;55.708;37.478;2023-04-03T08:00:07;13.93;;;7.70;;
49824;SDS011;35714;55.708;37.478;2023-04-03T08:02:40;14.13;;;7.18;;
49824;SDS011;35714;55.708;37.478;2023-04-03T08:05:06;16.98;;;6.80;;
49824;SDS011;35714;55.708;37.478;2023-04-03T08:07:32;13.93;;;6.97;;
49824;SDS011;35714;55.708;37.478;2023-04-03T08:09:57;14.88;;;7.30;;
49824;SDS011;35714;55.708;37.478;2023-04-03T08:12:23;14.50;;;6.07;;
49824;SDS011;35714;55.708;37.478;2023-04-03T08:14:48;11.27;;;6.50;;
49824;SDS011;35714;55.708;37.478;2023-04-03T08:17:14;14.98;;;7.82;;
49824;SDS011;35714;55.708;37.478;2023-04-03T08:19:40;19.58;;;7.80;;
49824;SDS011;35714;55.708;37.478;2023-04-03T08:22:06;14.63;;;7.45;;
49824;SDS011;35714;55.708;37.478;2023-04-03T08:24:32;16.88;;;8.00;;
49824;SDS011;35714;55.708;37.478;2023-04-03T08:26:59;21.75;;;7.63;;
49824;SDS011;35714;55.708;37.478;2023-04-03T08:29:25;18.38;;;7.07;;
49824;SDS011;35714;55.708;37.478;2023-04-03T08:31:51;12.43;;;6.07;;
49824;SDS011;35714;55.708;37.478;2023-04-03T08:34:17;18.70;;;7.80;;
49824;SDS011;35714;55.708;37.478;2023-04-03T08:36:44;19.58;;;6.50;;
49824;SDS011;35714;55.708;37.478;2023-04-03T08:39:10;18.92;;;6.80;;
49824;SDS011;35714;55.708;37.478;2023-04-03T08:41:40;18.48;;;7.65;;
49824;SDS011;35714;55.708;37.478;2023-04-03T08:50:50;16.30;;;7.10;;
49824;SDS011;35714;55.708;37.478;2023-04-03T08:53:19;14.20;;;6.78;;
49824;SDS011;35714;55.708;37.478;2023-04-03T08:55:51;20.13;;;8.48;;
49824;SDS011;35714;55.708;37.478;2023-04-03T08:58:22;17.17;;;7.82;;
49824;SDS011;35714;55.708;37.478;2023-04-03T09:00:51;22.15;;;7.50;;
49824;SDS011;35714;55.708;37.478;2023-04-03T09:03:30;20.95;;;8.38;;
49824;SDS011;35714;55.708;37.478;2023-04-03T09:14:28;22.30;;;7.20;;
49824;SDS011;35714;55.708;37.478;2023-04-03T09:19:41;13.85;;;7.20;;
49824;SDS011;35714;55.708;37.478;2023-04-03T09:22:17;20.65;;;6.75;;
49824;SDS011;35714;55.708;37.478;2023-04-03T09:24:57;15.68;;;7.53;;
49824;SDS011;35714;55.708;37.478;2023-04-03T09:27:28;12.00;;;6.53;;
49824;SDS011;35714;55.708;37.478;2023-04-03T09:29:54;18.45;;;8.73;;
49824;SDS011;35714;55.708;37.478;2023-04-03T09:32:25;13.00;;;7.30;;
49824;SDS011;35714;55.708;37.478;2023-04-03T09:34:59;15.27;;;7.38;;
49824;SDS011;35714;55.708;37.478;2023-04-03T09:37:38;12.27;;;7.30;;
49824;SDS011;35714;55.708;37.478;2023-04-03T09:43:22;12.48;;;6.97;;
49824;SDS011;35714;55.708;37.478;2023-04-03T09:45:48;14.77;;;7.55;;
49824;SDS011;35714;55.708;37.478;2023-04-03T09:48:17;11.23;;;6.70;;
49824;SDS011;35714;55.708;37.478;2023-04-03T09:58:40;17.45;;;9.20;;
49824;SDS011;35714;55.708;37.478;2023-04-03T10:04:10;16.58;;;8.38;;
49824;SDS011;35714;55.708;37.478;2023-04-03T10:06:42;13.68;;;8.50;;
49824;SDS011;35714;55.708;37.478;2023-04-03T10:09:20;13.98;;;8.48;;
49824;SDS011;35714;55.708;37.478;2023-04-03T10:12:09;19.92;;;8.98;;
49824;SDS011;35714;55.708;37.478;2023-04-03T10:14:38;13.90;;;8.45;;
49824;SDS011;35714;55.708;37.478;2023-04-03T10:17:19;18.60;;;8.77;;
49824;SDS011;35714;55.708;37.478;2023-04-03T10:31:20;16.25;;;7.90;;
49824;SDS011;35714;55.708;37.478;2023-04-03T10:36:34;17.60;;;9.05;;
49824;SDS011;35714;55.708;37.478;2023-04-03T10:50:38;16.40;;;6.78;;
49824;SDS011;35714;55.708;37.478;2023-04-03T10:58:33;12.00;;;6.22;;
49824;SDS011;35714;55.708;37.478;2023-04-03T11:01:13;14.10;;;6.35;;
49824;SDS011;35714;55.708;37.478;2023-04-03T11:03:52;15.50;;;7.35;;
49824;SDS011;35714;55.708;37.478;2023-04-03T11:06:21;17.42;;;8.43;;
49824;SDS011;35714;55.708;37.478;2023-04-03T11:08:51;17.15;;;7.90;;
49824;SDS011;35714;55.708;37.478;2023-04-03T11:11:30;14.25;;;7.32;;
49824;SDS011;35714;55.708;37.478;2023-04-03T11:14:11;13.32;;;6.65;;
49824;SDS011;35714;55.708;37.478;2023-04-03T11:19:57;12.60;;;6.15;;
49824;SDS011;35714;55.708;37.478;2023-04-03T11:22:27;17.10;;;5.60;;
49824;SDS011;35714;55.708;37.478;2023-04-03T11:25:17;18.80;;;6.00;;
49824;SDS011;35714;55.708;37.478;2023-04-03T11:27:49;13.30;;;5.97;;
49824;SDS011;35714;55.708;37.478;2023-04-03T11:32:59;13.30;;;6.15;;
49824;SDS011;35714;55.708;37.478;2023-04-03T11:35:27;15.45;;;8.05;;
49824;SDS011;35714;55.708;37.478;2023-04-03T11:37:53;13.43;;;6.85;;
49824;SDS011;35714;55.708;37.478;2023-04-03T11:40:22;9.90;;;6.60;;
49824;SDS011;35714;55.708;37.478;2023-04-03T11:42:55;14.88;;;6.30;;
49824;SDS011;35714;55.708;37.478;2023-04-03T11:48:06;10.57;;;5.97;;
49824;SDS011;35714;55.708;37.478;2023-04-03T11:50:53;14.15;;;6.70;;
49824;SDS011;35714;55.708;37.478;2023-04-03T11:53:34;10.85;;;6.88;;
49824;SDS011;35714;55.708;37.478;2023-04-03T12:04:24;16.23;;;10.27;;
49824;SDS011;35714;55.708;37.478;2023-04-03T12:14:51;10.23;;;5.68;;
49824;SDS011;35714;55.708;37.478;2023-04-03T12:17:22;17.80;;;6.13;;
49824;SDS011;35714;55.708;37.478;2023-04-03T12:19:51;13.30;;;7.03;;
49824;SDS011;35714;55.708;37.478;2023-04-03T12:22:18;11.20;;;6.45;;
49824;SDS011;35714;55.708;37.478;2023-04-03T12:24:47;17.02;;;6.18;;
49824;SDS011;35714;55.708;37.478;2023-04-03T12:27:33;14.18;;;6.65;;
49824;SDS011;35714;55.708;37.478;2023-04-03T12:30:15;11.27;;;6.00;;
49824;SDS011;35714;55.708;37.478;2023-04-03T12:32:58;11.48;;;5.38;;
49824;SDS011;35714;55.708;37.478;2023-04-03T12:35:37;11.32;;;6.13;;
49824;SDS011;35714;55.708;37.478;2023-04-03T12:46:38;11.18;;;5.90;;
49824;SDS011;35714;55.708;37.478;2023-04-03T12:49:14;10.20;;;5.32;;
49824;SDS011;35714;55.708;37.478;2023-04-03T12:51:59;9.95;;;5.47;;
49824;SDS011;35714;55.708;37.478;2023-04-03T12:57:10;13.75;;;5.65;;
49824;SDS011;35714;55.708;37.478;2023-04-03T12:59:43;11.50;;;6.05;;
49824;SDS011;35714;55.708;37.478;2023-04-03T13:05:07;8.98;;;4.88;;
49824;SDS011;35714;55.708;37.478;2023-04-03T13:07:39;11.40;;;4.28;;
49824;SDS011;35714;55.708;37.478;2023-04-03T13:12:33;10.90;;;3.90;;
49824;SDS011;35714;55.708;37.478;2023-04-03T13:15:00;7.82;;;3.95;;
49824;SDS011;35714;55.708;37.478;2023-04-03T13:17:38;9.27;;;3.20;;
49824;SDS011;35714;55.708;37.478;2023-04-03T13:23:07;9.43;;;4.20;;
49824;SDS011;35714;55.708;37.478;2023-04-03T13:28:05;7.93;;;3.92;;
49824;SDS011;35714;55.708;37.478;2023-04-03T13:30:36;8.70;;;3.65;;
49824;SDS011;35714;55.708;37.478;2023-04-03T13:33:04;8.40;;;4.00;;
49824;SDS011;35714;55.708;37.478;2023-04-03T13:35:43;9.88;;;3.45;;
49824;SDS011;35714;55.708;37.478;2023-04-03T13:40:57;5.97;;;3.22;;
49824;SDS011;35714;55.708;37.478;2023-04-03T13:43:26;8.55;;;3.78;;
49824;SDS011;35714;55.708;37.478;2023-04-03T13:48:44;7.05;;;3.53;;
49824;SDS011;35714;55.708;37.478;2023-04-03T13:53:47;6.30;;;3.25;;
49824;SDS011;35714;55.708;37.478;2023-04-03T13:56:34;5.90;;;3.28;;
49824;SDS011;35714;55.708;37.478;2023-04-03T13:59:05;8.60;;;3.42;;
49824;SDS011;35714;55.708;37.478;2023-04-03T14:01:53;8.15;;;3.25;;
49824;SDS011;35714;55.708;37.478;2023-04-03T14:04:30;8.32;;;3.35;;
49824;SDS011;35714;55.708;37.478;2023-04-03T14:06:58;9.25;;;3.03;;
49824;SDS011;35714;55.708;37.478;2023-04-03T14:09:25;5.65;;;2.65;;
49824;SDS011;35714;55.708;37.478;2023-04-03T14:11:57;8.50;;;3.38;;
49824;SDS011;35714;55.708;37.478;2023-04-03T14:14:30;8.00;;;3.42;;
49824;SDS011;35714;55.708;37.478;2023-04-03T14:17:00;6.95;;;3.35;;
49824;SDS011;35714;55.708;37.478;2023-04-03T14:19:31;6.47;;;3.20;;
49824;SDS011;35714;55.708;37.478;2023-04-03T14:21:59;9.68;;;3.38;;
49824;SDS011;35714;55.708;37.478;2023-04-03T14:24:26;6.90;;;3.35;;
49824;SDS011;35714;55.708;37.478;2023-04-03T14:26:53;7.00;;;3.38;;
49824;SDS011;35714;55.708;37.478;2023-04-03T14:29:20;7.03;;;3.08;;
49824;SDS011;35714;55.708;37.478;2023-04-03T14:31:47;9.63;;;3.72;;
49824;SDS011;35714;55.708;37.478;2023-04-03T14:34:14;11.68;;;3.58;;
49824;SDS011;35714;55.708;37.478;2023-04-03T14:36:41;6.82;;;3.58;;
49824;SDS011;35714;55.708;37.478;2023-04-03T14:39:10;10.02;;;4.18;;
49824;SDS011;35714;55.708;37.478;2023-04-03T14:41:41;6.97;;;3.35;;
49824;SDS011;35714;55.708;37.478;2023-04-03T14:44:07;7.35;;;3.28;;
49824;SDS011;35714;55.708;37.478;2023-04-03T14:46:37;7.13;;;3.47;;
49824;SDS011;35714;55.708;37.478;2023-04-03T14:49:21;7.88;;;3.72;;
49824;SDS011;35714;55.708;37.478;2023-04-03T14:51:49;9.60;;;3.85;;
49824;SDS011;35714;55.708;37.478;2023-04-03T14:54:18;7.18;;;3.22;;
49824;SDS011;35714;55.708;37.478;2023-04-03T14:56:50;8.10;;;3.30;;
49824;SDS011;35714;55.708;37.478;2023-04-03T14:59:17;9.32;;;3.80;;
49824;SDS011;35714;55.708;37.478;2023-04-03T15:01:45;7.57;;;3.28;;
49824;SDS011;35714;55.708;37.478;2023-04-03T15:04:15;7.30;;;3.55;;
49824;SDS011;35714;55.708;37.478;2023-04-03T15:06:45;7.80;;;3.50;;
49824;SDS011;35714;55.708;37.478;2023-04-03T15:09:25;8.13;;;3.17;;
49824;SDS011;35714;55.708;37.478;2023-04-03T15:11:52;8.35;;;3.47;;
49824;SDS011;35714;55.708;37.478;2023-04-03T15:14:19;8.38;;;3.97;;
49824;SDS011;35714;55.708;37.478;2023-04-03T15:16:45;10.52;;;4.72;;
49824;SDS011;35714;55.708;37.478;2023-04-03T15:19:11;9.57;;;4.05;;
49824;SDS011;35714;55.708;37.478;2023-04-03T15:21:38;7.38;;;4.22;;
49824;SDS011;35714;55.708;37.478;2023-04-03T15:24:04;9.63;;;3.80;;
49824;SDS011;35714;55.708;37.478;2023-04-03T15:26:30;7.90;;;3.53;;
49824;SDS011;35714;55.708;37.478;2023-04-03T15:28:57;8.38;;;3.63;;
49824;SDS011;35714;55.708;37.478;2023-04-03T15:31:23;11.73;;;3.60;;
49824;SDS011;35714;55.708;37.478;2023-04-03T15:33:48;8.60;;;3.42;;
49824;SDS011;35714;55.708;37.478;2023-04-03T15:36:14;10.95;;;3.80;;
49824;SDS011;35714;55.708;37.478;2023-04-03T15:38:39;11.00;;;3.90;;
49824;SDS011;35714;55.708;37.478;2023-04-03T15:41:05;7.60;;;4.25;;
49824;SDS011;35714;55.708;37.478;2023-04-03T15:43:31;9.90;;;3.80;;
49824;SDS011;35714;55.708;37.478;2023-04-03T15:45:59;7.20;;;3.33;;
49824;SDS011;35714;55.708;37.478;2023-04-03T15:48:25;8.93;;;3.95;;
49824;SDS011;35714;55.708;37.478;2023-04-03T15:50:52;12.82;;;4.53;;
49824;SDS011;35714;55.708;37.478;2023-04-03T15:53:18;7.82;;;4.75;;
49824;SDS011;35714;55.708;37.478;2023-04-03T15:55:44;9.60;;;4.22;;
49824;SDS011;35714;55.708;37.478;2023-04-03T15:58:09;9.68;;;4.18;;
49824;SDS011;35714;55.708;37.478;2023-04-03T16:00:36;6.15;;;3.50;;
49824;SDS011;35714;55.708;37.478;2023-04-03T16:03:09;10.32;;;3.88;;
49824;SDS011;35714;55.708;37.478;2023-04-03T16:05:43;8.27;;;4.05;;
49824;SDS011;35714;55.708;37.478;2023-04-03T16:08:09;10.20;;;4.30;;
49824;SDS011;35714;55.708;37.478;2023-04-03T16:10:35;9.07;;;4.15;;
49824;SDS011;35714;55.708;37.478;2023-04-03T16:13:02;11.05;;;4.57;;
49824;SDS011;35714;55.708;37.478;2023-04-03T16:15:29;14.32;;;4.93;;
49824;SDS011;35714;55.708;37.478;2023-04-03T16:17:55;8.77;;;4.50;;
49824;SDS011;35714;55.708;37.478;2023-04-03T16:20:23;15.05;;;6.13;;
49824;SDS011;35714;55.708;37.478;2023-04-03T16:22:49;10.13;;;5.25;;
49824;SDS011;35714;55.708;37.478;2023-04-03T16:25:15;11.48;;;5.22;;
49824;SDS011;35714;55.708;37.478;2023-04-03T16:27:41;11.10;;;4.70;;
49824;SDS011;35714;55.708;37.478;2023-04-03T16:30:07;11.27;;;5.05;;
49824;SDS011;35714;55.708;37.478;2023-04-03T16:32:33;8.20;;;4.20;;
49824;SDS011;35714;55.708;37.478;2023-04-03T16:35:00;10.00;;;5.45;;
49824;SDS011;35714;55.708;37.478;2023-04-03T16:37:25;9.88;;;5.13;;
49824;SDS011;35714;55.708;37.478;2023-04-03T16:39:51;9.60;;;4.65;;